Аэропорт: Черновцы. Черновцы

ICAO: UKLN

METAR:
2018/09/19 07:30
UKLN 190730Z VRB01MPS CAVOK 18/13 Q1023 R15/09//70 NOSIG
METAR:
2018/06/09 15:36
TAF 
      AMD TAF 
      AMD UKLN 091529Z 0915/1024 04005MPS 9999 BKN033CB TX28/0916Z TN17/0924Z 
      TEMPO 0916/0921 VRB09G14MPS 2100 -TSRA BKN007 BKN020CB